Time;durP1;ratioP1;P1;durP2;ratioP2;P2;SDS_P1;SDS_P2;PMS_P1;PMS_P2;Temp;Humidity;BMP_temperature;BMP_pressure;BME280_temperature;BME280_humidity;BME280_pressure;Samples;Min_cycle;Max_cycle;Signal;HPM_P1;HPM_P2
2021/08/19 00:01:04;;;;;;;;;4.33;2.67;;;;;;;;5001123;28;45337;-83
2021/08/19 00:03:29;;;;;;;;;3.00;2.00;;;;;;;;4982962;28;45475;-83
2021/08/19 00:05:54;;;;;;;;;2.00;2.00;;;;;;;;4991439;28;45482;-83
2021/08/19 00:08:20;;;;;;;;;5.50;3.75;;;;;;;;4986514;28;48235;-82
2021/08/19 00:10:45;;;;;;;;;4.00;2.00;;;;;;;;5001955;28;45450;-82
2021/08/19 00:13:10;;;;;;;;;2.33;2.33;;;;;;;;5002884;28;45333;-83
2021/08/19 00:15:35;;;;;;;;;5.00;2.00;;;;;;;;5004393;28;45391;-83
2021/08/19 00:18:01;;;;;;;;;2.00;2.00;;;;;;;;5004961;28;46123;-82
2021/08/19 00:20:26;;;;;;;;;2.75;2.75;;;;;;;;5005282;28;45415;-82
2021/08/19 00:22:51;;;;;;;;;3.75;3.00;;;;;;;;5005432;28;45215;-83
2021/08/19 00:25:16;;;;;;;;;2.67;2.00;;;;;;;;5002884;28;45343;-82
2021/08/19 00:27:42;;;;;;;;;4.00;4.00;;;;;;;;4999861;28;47400;-82
2021/08/19 00:30:07;;;;;;;;;3.50;3.00;;;;;;;;4997024;28;45392;-82
2021/08/19 00:32:33;;;;;;;;;4.25;3.50;;;;;;;;4998881;28;45324;-83
2021/08/19 00:34:58;;;;;;;;;3.75;3.00;;;;;;;;4999512;28;46144;-83
2021/08/19 00:37:23;;;;;;;;;4.00;2.25;;;;;;;;5000888;28;45297;-83
2021/08/19 00:39:48;;;;;;;;;2.50;2.00;;;;;;;;5000944;28;45391;-82
2021/08/19 00:42:17;;;;;;;;;3.33;2.67;;;;;;;;5000623;28;45293;-82
2021/08/19 00:44:43;;;;;;;;;2.00;2.00;;;;;;;;5000898;28;45425;-82
2021/08/19 00:47:08;;;;;;;;;4.00;3.00;;;;;;;;5000801;28;46543;-82
2021/08/19 00:49:34;;;;;;;;;2.75;2.50;;;;;;;;5000186;28;45235;-82
2021/08/19 00:51:59;;;;;;;;;4.00;2.25;;;;;;;;4999314;28;45389;-83
2021/08/19 00:54:25;;;;;;;;;2.00;2.00;;;;;;;;4988540;28;45531;-83
2021/08/19 00:56:52;;;;;;;;;4.50;2.00;;;;;;;;4997910;28;45477;-83
2021/08/19 00:59:23;;;;;;;;;2.00;2.00;;;;;;;;4999304;28;45444;-83
2021/08/19 01:01:58;;;;;;;;;2.00;2.00;;;;;;;;5000377;28;45421;-83
2021/08/19 01:04:23;;;;;;;;;6.25;2.50;;;;;;;;5000455;28;45240;-83
2021/08/19 01:06:49;;;;;;;;;2.25;2.25;;;;;;;;5000483;28;45168;-83
2021/08/19 01:09:15;;;;;;;;;4.25;3.25;;;;;;;;4984514;28;45547;-83
2021/08/19 01:11:42;;;;;;;;;3.00;3.00;;;;;;;;5003830;28;45359;-83
2021/08/19 01:14:08;;;;;;;;;2.25;2.25;;;;;;;;5006227;28;45482;-83
2021/08/19 01:16:34;;;;;;;;;1.25;1.25;;;;;;;;5002232;28;46623;-83
2021/08/19 01:18:59;;;;;;;;;3.00;2.00;;;;;;;;5000557;28;45307;-83
2021/08/19 01:21:24;;;;;;;;;4.33;3.33;;;;;;;;5008223;28;45290;-83
2021/08/19 01:23:49;;;;;;;;;2.33;2.00;;;;;;;;5007448;28;45566;-83
2021/08/19 01:26:15;;;;;;;;;2.75;1.50;;;;;;;;4973594;28;47307;-83
2021/08/19 01:28:41;;;;;;;;;2.50;2.50;;;;;;;;4986279;28;45397;-83
2021/08/19 01:31:07;;;;;;;;;3.00;3.00;;;;;;;;4986215;28;45376;-83
2021/08/19 01:33:33;;;;;;;;;3.00;3.00;;;;;;;;5003391;28;45322;-83
2021/08/19 01:35:58;;;;;;;;;3.00;3.00;;;;;;;;4985686;28;48268;-83
2021/08/19 01:38:34;;;;;;;;;4.25;4.25;;;;;;;;5003507;28;45226;-83
2021/08/19 01:41:00;;;;;;;;;3.50;3.50;;;;;;;;5003731;28;45338;-83
2021/08/19 01:43:27;;;;;;;;;5.75;2.50;;;;;;;;4990046;28;45572;-83
2021/08/19 01:45:54;;;;;;;;;2.00;2.00;;;;;;;;5003598;28;45317;-83
2021/08/19 01:48:19;;;;;;;;;3.00;3.00;;;;;;;;4985083;28;45223;-83
2021/08/19 01:50:44;;;;;;;;;5.33;2.00;;;;;;;;5003784;28;45240;-83
2021/08/19 01:53:10;;;;;;;;;2.00;2.00;;;;;;;;4986535;28;45456;-82
2021/08/19 01:55:36;;;;;;;;;4.67;4.00;;;;;;;;5015695;28;46632;-82
2021/08/19 01:58:01;;;;;;;;;4.50;4.00;;;;;;;;5022837;28;44709;-82
2021/08/19 02:00:26;;;;;;;;;2.33;1.33;;;;;;;;5005200;28;45366;-83
2021/08/19 02:02:52;;;;;;;;;2.33;2.33;;;;;;;;5002730;28;45187;-83
2021/08/19 02:05:17;;;;;;;;;5.00;3.67;;;;;;;;5003710;28;45387;-83
2021/08/19 02:07:42;;;;;;;;;5.67;3.33;;;;;;;;5004285;28;45225;-83
2021/08/19 02:10:08;;;;;;;;;5.00;3.67;;;;;;;;4986390;28;45279;-83
2021/08/19 02:12:33;;;;;;;;;4.00;3.25;;;;;;;;5004468;28;45340;-83
2021/08/19 02:14:59;;;;;;;;;3.00;3.00;;;;;;;;5007555;28;45250;-83
2021/08/19 02:17:24;;;;;;;;;3.50;3.00;;;;;;;;4989115;28;45949;-82
2021/08/19 02:19:49;;;;;;;;;5.00;3.00;;;;;;;;4977271;28;45346;-83
2021/08/19 02:22:14;;;;;;;;;4.00;3.00;;;;;;;;5006041;28;45335;-83
2021/08/19 02:24:40;;;;;;;;;4.75;2.00;;;;;;;;5004132;28;45427;-83
2021/08/19 02:27:05;;;;;;;;;2.25;2.00;;;;;;;;4985411;28;45232;-83
2021/08/19 02:29:30;;;;;;;;;4.00;2.50;;;;;;;;5003259;28;45389;-83
2021/08/19 02:31:55;;;;;;;;;2.75;2.75;;;;;;;;5002686;28;45345;-83
2021/08/19 02:34:21;;;;;;;;;2.00;2.00;;;;;;;;5002314;28;45388;-83
2021/08/19 02:36:46;;;;;;;;;1.00;1.00;;;;;;;;4984950;28;45441;-83
2021/08/19 02:39:11;;;;;;;;;4.00;2.33;;;;;;;;4985157;28;45435;-83
2021/08/19 02:41:36;;;;;;;;;2.00;2.00;;;;;;;;5002532;28;45471;-83
2021/08/19 02:44:01;;;;;;;;;2.33;2.00;;;;;;;;5001928;28;46201;-83
2021/08/19 02:46:28;;;;;;;;;3.50;3.00;;;;;;;;5002362;28;45365;-83
2021/08/19 02:48:53;;;;;;;;;2.00;1.25;;;;;;;;5001944;28;45464;-83
2021/08/19 02:51:19;;;;;;;;;4.00;2.50;;;;;;;;5001945;28;45355;-83
2021/08/19 02:53:44;;;;;;;;;2.67;2.67;;;;;;;;4984341;28;47029;-83
2021/08/19 02:56:09;;;;;;;;;4.00;3.00;;;;;;;;5001890;28;45227;-83
2021/08/19 02:58:34;;;;;;;;;3.00;2.00;;;;;;;;4985018;28;45159;-83
2021/08/19 03:01:00;;;;;;;;;3.00;3.00;;;;;;;;5002191;28;45361;-83
2021/08/19 03:03:25;;;;;;;;;3.00;2.67;;;;;;;;5001692;28;45405;-83
2021/08/19 03:05:50;;;;;;;;;3.00;2.00;;;;;;;;5002234;28;45437;-81
2021/08/19 03:08:15;;;;;;;;;3.00;3.00;;;;;;;;5002791;28;45310;-83
2021/08/19 03:10:41;;;;;;;;;3.25;2.50;;;;;;;;5003329;28;45408;-81
2021/08/19 03:13:06;;;;;;;;;3.00;3.00;;;;;;;;5005828;28;45350;-81
2021/08/19 03:15:31;;;;;;;;;3.00;3.00;;;;;;;;5006392;28;45227;-81
2021/08/19 03:17:56;;;;;;;;;4.00;2.00;;;;;;;;4984815;28;45419;-82
2021/08/19 03:20:21;;;;;;;;;2.00;2.00;;;;;;;;5001482;28;45549;-82
2021/08/19 03:22:48;;;;;;;;;3.67;3.00;;;;;;;;5001256;28;46213;-82
2021/08/19 03:25:13;;;;;;;;;1.50;1.50;;;;;;;;4983918;28;45387;-82
2021/08/19 03:27:38;;;;;;;;;2.25;1.75;;;;;;;;4983745;28;45190;-82
2021/08/19 03:30:04;;;;;;;;;3.00;1.00;;;;;;;;5001394;28;45587;-82
2021/08/19 03:32:30;;;;;;;;;2.00;2.00;;;;;;;;4996199;28;47025;-82
2021/08/19 03:34:55;;;;;;;;;4.00;2.00;;;;;;;;5001002;28;45352;-82
2021/08/19 03:37:20;;;;;;;;;3.00;3.00;;;;;;;;5001419;28;45344;-82
2021/08/19 03:39:45;;;;;;;;;3.25;3.00;;;;;;;;4983639;28;45432;-82
2021/08/19 03:42:11;;;;;;;;;4.00;3.00;;;;;;;;5001036;28;45602;-83
2021/08/19 03:44:36;;;;;;;;;4.00;2.00;;;;;;;;4983464;28;45558;-82
2021/08/19 03:47:01;;;;;;;;;5.00;3.00;;;;;;;;4983386;28;45312;-82
2021/08/19 03:49:27;;;;;;;;;2.75;1.25;;;;;;;;5000866;28;45270;-82
2021/08/19 03:51:52;;;;;;;;;2.50;2.50;;;;;;;;4983279;28;48045;-83
2021/08/19 03:54:18;;;;;;;;;2.00;2.00;;;;;;;;5001185;28;45516;-82
2021/08/19 03:56:43;;;;;;;;;3.75;3.75;;;;;;;;5000898;28;45336;-82
2021/08/19 03:59:09;;;;;;;;;2.75;2.25;;;;;;;;5000969;28;45436;-82
2021/08/19 04:01:34;;;;;;;;;3.75;3.00;;;;;;;;5000644;28;45322;-82
2021/08/19 04:04:00;;;;;;;;;3.75;3.00;;;;;;;;5000815;28;45186;-83
2021/08/19 04:06:25;;;;;;;;;2.00;2.00;;;;;;;;5000851;28;45436;-82
2021/08/19 04:08:50;;;;;;;;;4.00;2.00;;;;;;;;5000860;28;45368;-82
2021/08/19 04:11:15;;;;;;;;;5.00;4.00;;;;;;;;4982883;28;48441;-82
2021/08/19 04:13:41;;;;;;;;;3.00;3.00;;;;;;;;4983014;28;45324;-83
2021/08/19 04:16:06;;;;;;;;;4.00;3.00;;;;;;;;4982934;28;45241;-82
2021/08/19 04:18:32;;;;;;;;;3.25;3.00;;;;;;;;5000311;28;45455;-82
2021/08/19 04:20:57;;;;;;;;;1.00;1.00;;;;;;;;5000499;28;45944;-83
2021/08/19 04:23:22;;;;;;;;;3.50;3.00;;;;;;;;5000571;28;45224;-82
2021/08/19 04:25:49;;;;;;;;;5.00;2.67;;;;;;;;5000698;28;45215;-82
2021/08/19 04:28:14;;;;;;;;;3.25;3.25;;;;;;;;5000370;28;45468;-82
2021/08/19 04:30:40;;;;;;;;;4.67;4.00;;;;;;;;5000371;28;46260;-82
2021/08/19 04:33:05;;;;;;;;;3.00;3.00;;;;;;;;5000144;28;45289;-82
2021/08/19 04:35:31;;;;;;;;;3.00;3.00;;;;;;;;5000448;28;45293;-82
2021/08/19 04:37:57;;;;;;;;;4.00;4.00;;;;;;;;4982806;28;45608;-82
2021/08/19 04:40:22;;;;;;;;;3.00;3.00;;;;;;;;4982442;28;47046;-82
2021/08/19 04:42:47;;;;;;;;;2.25;1.50;;;;;;;;5000282;28;45325;-82
2021/08/19 04:45:13;;;;;;;;;3.75;2.00;;;;;;;;4981821;28;45435;-82
2021/08/19 04:47:38;;;;;;;;;4.33;4.33;;;;;;;;4999999;28;45555;-82
2021/08/19 04:50:03;;;;;;;;;3.00;3.00;;;;;;;;5000153;28;45363;-82
2021/08/19 04:52:29;;;;;;;;;7.00;3.25;;;;;;;;4982666;28;45475;-82
2021/08/19 04:54:54;;;;;;;;;5.00;4.00;;;;;;;;4982721;28;45317;-82
2021/08/19 04:57:19;;;;;;;;;5.00;4.00;;;;;;;;5002866;28;45551;-82
2021/08/19 04:59:44;;;;;;;;;5.00;4.00;;;;;;;;5003138;28;45355;-82
2021/08/19 05:02:09;;;;;;;;;5.00;4.00;;;;;;;;4982862;28;45281;-82
2021/08/19 05:04:35;;;;;;;;;5.00;3.67;;;;;;;;4999111;28;45560;-82
2021/08/19 05:07:00;;;;;;;;;3.67;3.67;;;;;;;;4987146;28;45186;-81
2021/08/19 05:09:25;;;;;;;;;7.67;5.00;;;;;;;;4969103;28;48360;-82
2021/08/19 05:11:50;;;;;;;;;6.50;4.50;;;;;;;;4993725;28;45223;-82
2021/08/19 05:14:15;;;;;;;;;6.33;5.00;;;;;;;;4997055;28;45302;-82
2021/08/19 05:16:41;;;;;;;;;7.33;5.00;;;;;;;;5000176;28;45437;-82
2021/08/19 05:19:06;;;;;;;;;5.50;3.50;;;;;;;;4981776;28;47407;-82
2021/08/19 05:21:31;;;;;;;;;3.33;3.00;;;;;;;;4994533;28;45195;-82
2021/08/19 05:23:56;;;;;;;;;4.00;3.33;;;;;;;;4983127;28;45266;-82
2021/08/19 05:26:21;;;;;;;;;4.00;4.00;;;;;;;;5002667;28;44824;-81
2021/08/19 05:28:47;;;;;;;;;6.67;5.00;;;;;;;;5019042;28;45355;-82
2021/08/19 05:31:12;;;;;;;;;4.00;4.00;;;;;;;;5004261;28;45246;-82
2021/08/19 05:33:38;;;;;;;;;4.00;3.00;;;;;;;;4999857;28;45219;-82
2021/08/19 05:36:08;;;;;;;;;8.00;4.00;;;;;;;;5000567;28;45151;-82
2021/08/19 05:38:33;;;;;;;;;5.00;5.00;;;;;;;;4987046;28;46582;-82
2021/08/19 05:40:58;;;;;;;;;7.00;4.50;;;;;;;;5001533;28;45317;-82
2021/08/19 05:43:23;;;;;;;;;4.00;4.00;;;;;;;;5003477;28;45348;-82
2021/08/19 05:45:49;;;;;;;;;5.75;4.25;;;;;;;;5002186;28;45495;-82
2021/08/19 05:48:14;;;;;;;;;3.67;3.67;;;;;;;;4981605;28;48158;-82
2021/08/19 05:50:39;;;;;;;;;8.00;4.00;;;;;;;;4975775;28;45372;-82
2021/08/19 05:53:07;;;;;;;;;8.00;3.00;;;;;;;;4979888;28;45223;-82
2021/08/19 05:55:32;;;;;;;;;5.75;4.50;;;;;;;;4982074;28;45269;-82
2021/08/19 05:57:57;;;;;;;;;5.00;5.00;;;;;;;;5002490;28;45297;-81
2021/08/19 06:00:22;;;;;;;;;3.67;3.67;;;;;;;;5002666;28;45258;-82
2021/08/19 06:02:48;;;;;;;;;4.00;4.00;;;;;;;;5002645;28;45294;-82
2021/08/19 06:05:13;;;;;;;;;5.50;4.25;;;;;;;;5002702;28;45487;-82
2021/08/19 06:07:39;;;;;;;;;6.00;5.00;;;;;;;;5002749;28;46563;-82
2021/08/19 06:10:04;;;;;;;;;3.33;3.33;;;;;;;;4984886;28;45226;-82
2021/08/19 06:12:29;;;;;;;;;5.00;4.00;;;;;;;;5002919;28;45278;-82
2021/08/19 06:14:54;;;;;;;;;4.33;4.33;;;;;;;;4984957;28;45499;-82
2021/08/19 06:17:20;;;;;;;;;6.00;6.00;;;;;;;;5002109;28;45382;-82
2021/08/19 06:19:45;;;;;;;;;6.00;4.00;;;;;;;;5002341;28;45353;-82
2021/08/19 06:22:10;;;;;;;;;5.75;5.00;;;;;;;;5002766;28;45343;-82
2021/08/19 06:24:35;;;;;;;;;6.00;5.67;;;;;;;;5002370;28;45314;-82
2021/08/19 06:27:01;;;;;;;;;5.00;5.00;;;;;;;;5002397;28;45309;-81
2021/08/19 06:29:26;;;;;;;;;6.25;4.25;;;;;;;;5002191;28;45247;-82
2021/08/19 06:31:51;;;;;;;;;6.00;5.33;;;;;;;;4984933;28;45360;-82
2021/08/19 06:34:16;;;;;;;;;6.00;4.00;;;;;;;;4984067;28;45542;-82
2021/08/19 06:36:42;;;;;;;;;5.33;4.33;;;;;;;;5002280;28;45388;-82
2021/08/19 06:39:07;;;;;;;;;5.75;5.25;;;;;;;;5002112;28;45323;-82
2021/08/19 06:41:32;;;;;;;;;6.00;5.00;;;;;;;;4984750;28;45342;-82
2021/08/19 06:43:57;;;;;;;;;6.67;5.00;;;;;;;;5001829;28;45344;-82
2021/08/19 06:46:22;;;;;;;;;4.00;4.00;;;;;;;;5001991;28;45962;-82
2021/08/19 06:48:48;;;;;;;;;5.33;5.33;;;;;;;;5001573;28;45390;-82
2021/08/19 06:51:13;;;;;;;;;7.00;5.00;;;;;;;;5002150;28;45300;-82
2021/08/19 06:53:38;;;;;;;;;5.75;5.00;;;;;;;;4984117;28;45294;-82
2021/08/19 06:56:04;;;;;;;;;4.33;4.33;;;;;;;;4984115;28;46986;-82
2021/08/19 06:58:29;;;;;;;;;6.50;5.00;;;;;;;;5001677;28;45316;-82
2021/08/19 07:00:56;;;;;;;;;6.33;6.00;;;;;;;;5003573;28;45369;-81
2021/08/19 07:03:22;;;;;;;;;6.00;5.00;;;;;;;;5005893;28;45552;-82
2021/08/19 07:05:47;;;;;;;;;6.75;5.50;;;;;;;;5006125;28;46387;-82
2021/08/19 07:08:14;;;;;;;;;7.75;6.00;;;;;;;;4989017;28;45296;-82
2021/08/19 07:10:40;;;;;;;;;5.25;5.25;;;;;;;;4991475;28;45479;-82
2021/08/19 07:13:05;;;;;;;;;5.00;5.00;;;;;;;;4985252;28;45604;-82
2021/08/19 07:15:31;;;;;;;;;5.00;5.00;;;;;;;;5005338;28;46202;-82
2021/08/19 07:17:56;;;;;;;;;6.00;5.50;;;;;;;;4997234;28;45577;-82
2021/08/19 07:20:21;;;;;;;;;5.00;5.00;;;;;;;;4982786;28;45454;-82
2021/08/19 07:22:46;;;;;;;;;6.25;5.00;;;;;;;;5000162;28;45412;-82
2021/08/19 07:25:12;;;;;;;;;10.25;6.25;;;;;;;;5001859;28;46166;-83
2021/08/19 07:27:39;;;;;;;;;5.00;4.75;;;;;;;;5001626;28;45528;-82
2021/08/19 07:30:05;;;;;;;;;5.75;4.75;;;;;;;;5002736;28;45143;-82
2021/08/19 07:32:30;;;;;;;;;6.50;4.75;;;;;;;;5001683;28;45216;-83
2021/08/19 07:34:55;;;;;;;;;2.00;2.00;;;;;;;;4984141;28;47431;-82
2021/08/19 07:37:21;;;;;;;;;5.33;5.33;;;;;;;;4984039;28;45937;-83
2021/08/19 07:39:46;;;;;;;;;5.00;5.00;;;;;;;;5004866;28;45457;-82
2021/08/19 07:42:11;;;;;;;;;6.33;5.33;;;;;;;;4984690;28;45329;-83
2021/08/19 07:44:36;;;;;;;;;10.25;7.00;;;;;;;;4983921;28;48205;-83
2021/08/19 07:47:02;;;;;;;;;5.75;5.75;;;;;;;;5001746;28;45395;-83
2021/08/19 07:49:27;;;;;;;;;6.50;5.00;;;;;;;;4992282;28;45287;-83
2021/08/19 07:51:52;;;;;;;;;9.00;7.33;;;;;;;;4983618;28;45389;-82
2021/08/19 07:54:17;;;;;;;;;10.00;6.67;;;;;;;;4983331;28;46515;-83
2021/08/19 07:56:43;;;;;;;;;6.25;6.25;;;;;;;;4996494;28;45188;-83
2021/08/19 07:59:08;;;;;;;;;6.25;5.75;;;;;;;;4988174;28;45312;-82
2021/08/19 08:01:33;;;;;;;;;6.50;6.00;;;;;;;;5005965;28;45562;-83
2021/08/19 08:03:59;;;;;;;;;6.25;6.00;;;;;;;;5005550;28;46188;-83
2021/08/19 08:06:24;;;;;;;;;7.50;5.00;;;;;;;;5004753;28;45321;-83
2021/08/19 08:08:49;;;;;;;;;7.00;6.00;;;;;;;;5002156;28;45426;-83
2021/08/19 08:11:14;;;;;;;;;9.25;6.75;;;;;;;;4983718;28;45957;-83
2021/08/19 08:13:40;;;;;;;;;7.00;7.00;;;;;;;;5001684;28;45526;-83
2021/08/19 08:16:05;;;;;;;;;9.00;6.50;;;;;;;;4983070;28;45409;-83
2021/08/19 08:18:30;;;;;;;;;7.50;6.50;;;;;;;;4984481;28;45344;-83
2021/08/19 08:20:57;;;;;;;;;7.67;6.00;;;;;;;;4983697;28;45462;-83
2021/08/19 08:23:23;;;;;;;;;8.25;4.75;;;;;;;;4975601;28;47934;-83
2021/08/19 08:25:48;;;;;;;;;7.00;7.00;;;;;;;;4964035;28;45452;-83
2021/08/19 08:28:24;;;;;;;;;8.25;5.50;;;;;;;;4967445;28;45342;-82
2021/08/19 08:30:52;;;;;;;;;10.75;7.25;;;;;;;;4992464;28;45323;-82
2021/08/19 08:33:18;;;;;;;;;8.25;7.00;;;;;;;;5004600;28;45279;-82
2021/08/19 08:35:43;;;;;;;;;7.00;6.00;;;;;;;;5000078;28;45264;-82
2021/08/19 08:38:10;;;;;;;;;8.00;6.00;;;;;;;;4981947;28;45493;-81
2021/08/19 08:40:36;;;;;;;;;9.00;6.25;;;;;;;;4980486;28;45553;-82
2021/08/19 08:43:03;;;;;;;;;6.00;6.00;;;;;;;;4990568;28;46199;-81
2021/08/19 08:45:28;;;;;;;;;8.00;6.50;;;;;;;;4981376;28;45485;-82
2021/08/19 08:47:54;;;;;;;;;9.00;7.00;;;;;;;;4964334;28;45255;-82
2021/08/19 08:50:19;;;;;;;;;8.75;7.00;;;;;;;;5005890;28;45356;-81
2021/08/19 08:52:45;;;;;;;;;7.50;6.00;;;;;;;;5013920;28;45343;-81
2021/08/19 08:55:10;;;;;;;;;7.00;5.50;;;;;;;;5009330;28;45288;-82
2021/08/19 08:57:36;;;;;;;;;8.75;7.00;;;;;;;;4993314;28;45618;-81
2021/08/19 09:00:03;;;;;;;;;6.25;6.25;;;;;;;;4991588;28;45208;-82
2021/08/19 09:02:28;;;;;;;;;7.25;6.00;;;;;;;;4987181;28;45472;-81
2021/08/19 09:05:12;;;;;;;;;10.33;5.67;;;;;;;;4985076;28;45273;-82
2021/08/19 09:07:38;;;;;;;;;8.00;6.00;;;;;;;;4985120;28;45299;-82
2021/08/19 09:10:03;;;;;;;;;8.33;5.33;;;;;;;;4965337;28;45616;-82
2021/08/19 09:12:28;;;;;;;;;4.00;4.00;;;;;;;;4983311;28;45326;-82
2021/08/19 09:14:54;;;;;;;;;7.67;7.33;;;;;;;;5000553;28;45270;-82
2021/08/19 09:17:38;;;;;;;;;6.25;4.25;;;;;;;;5000635;28;45341;-82
2021/08/19 09:20:05;;;;;;;;;8.75;6.50;;;;;;;;5001292;28;45225;-80
2021/08/19 09:22:48;;;;;;;;;7.00;5.75;;;;;;;;5000579;28;46641;-82
2021/08/19 09:25:32;;;;;;;;;10.50;6.50;;;;;;;;4983095;28;45224;-82
2021/08/19 09:28:08;;;;;;;;;7.00;5.00;;;;;;;;4982510;28;45507;-82
2021/08/19 09:30:34;;;;;;;;;7.00;6.00;;;;;;;;5000138;28;45499;-82
2021/08/19 09:33:04;;;;;;;;;5.50;4.75;;;;;;;;4985818;28;48838;-82
2021/08/19 09:35:30;;;;;;;;;6.50;5.50;;;;;;;;5003824;28;45258;-82
2021/08/19 09:37:55;;;;;;;;;5.25;5.00;;;;;;;;4985779;28;45325;-82
2021/08/19 09:40:21;;;;;;;;;5.75;4.25;;;;;;;;4986615;28;45251;-82
2021/08/19 09:42:46;;;;;;;;;5.33;4.67;;;;;;;;5003322;28;45369;-82
2021/08/19 09:45:19;;;;;;;;;7.50;4.50;;;;;;;;4985335;28;45262;-82
2021/08/19 09:47:45;;;;;;;;;5.50;4.50;;;;;;;;5003156;28;45376;-82
2021/08/19 09:50:14;;;;;;;;;9.50;7.00;;;;;;;;5003055;28;45342;-82
2021/08/19 09:52:40;;;;;;;;;5.50;4.75;;;;;;;;5003024;28;45303;-82
2021/08/19 09:55:22;;;;;;;;;5.75;5.00;;;;;;;;5002931;28;45465;-81
2021/08/19 09:57:48;;;;;;;;;4.25;4.00;;;;;;;;4977875;28;45403;-82
2021/08/19 10:00:30;;;;;;;;;4.75;4.00;;;;;;;;4985135;28;45179;-82
2021/08/19 10:02:56;;;;;;;;;5.00;4.00;;;;;;;;5002286;28;45207;-82
2021/08/19 10:05:21;;;;;;;;;6.50;4.00;;;;;;;;5002810;28;45428;-82
2021/08/19 10:07:47;;;;;;;;;5.75;5.00;;;;;;;;4985112;28;45342;-82
2021/08/19 10:10:12;;;;;;;;;4.00;4.00;;;;;;;;5003034;28;45376;-82
2021/08/19 10:12:44;;;;;;;;;4.25;4.25;;;;;;;;4984574;28;47102;-82
2021/08/19 10:15:10;;;;;;;;;6.50;5.50;;;;;;;;4985368;28;45223;-82
2021/08/19 10:17:36;;;;;;;;;4.75;4.00;;;;;;;;5002710;28;45226;-82
2021/08/19 10:20:05;;;;;;;;;7.00;7.00;;;;;;;;5003432;28;45645;-82
2021/08/19 10:22:33;;;;;;;;;10.25;6.50;;;;;;;;5002847;28;45649;-82
2021/08/19 10:24:59;;;;;;;;;3.50;3.50;;;;;;;;5002539;28;45424;-82
2021/08/19 10:27:27;;;;;;;;;5.75;5.00;;;;;;;;5002515;28;45258;-82
2021/08/19 10:29:54;;;;;;;;;4.00;3.00;;;;;;;;4984666;28;45279;-82
2021/08/19 10:32:25;;;;;;;;;3.00;3.00;;;;;;;;5001932;28;45365;-81
2021/08/19 10:34:55;;;;;;;;;6.50;4.50;;;;;;;;5002497;28;45435;-82
2021/08/19 10:37:20;;;;;;;;;5.75;3.25;;;;;;;;4984865;28;45382;-82
2021/08/19 10:39:45;;;;;;;;;6.67;5.00;;;;;;;;4984866;28;45401;-82
2021/08/19 10:42:11;;;;;;;;;6.25;3.50;;;;;;;;4985022;28;47054;-82
2021/08/19 10:44:44;;;;;;;;;5.25;5.00;;;;;;;;4984146;28;45995;-82
2021/08/19 10:47:30;;;;;;;;;5.00;4.00;;;;;;;;4984647;28;45475;-82
2021/08/19 10:49:55;;;;;;;;;5.00;5.00;;;;;;;;4984624;28;45742;-82
2021/08/19 10:52:23;;;;;;;;;5.33;3.00;;;;;;;;5002740;28;45554;-83
2021/08/19 10:54:50;;;;;;;;;4.00;4.00;;;;;;;;5002548;28;45314;-82
2021/08/19 10:57:25;;;;;;;;;5.00;4.25;;;;;;;;5002525;28;45258;-82
2021/08/19 11:00:07;;;;;;;;;3.50;3.50;;;;;;;;4984907;28;45536;-82
2021/08/19 11:02:41;;;;;;;;;4.50;3.75;;;;;;;;4984663;28;47093;-82
2021/08/19 11:05:07;;;;;;;;;4.50;4.50;;;;;;;;4983728;28;45583;-82
2021/08/19 11:07:48;;;;;;;;;4.75;4.75;;;;;;;;4983422;28;45259;-82
2021/08/19 11:10:22;;;;;;;;;4.25;4.25;;;;;;;;4992673;28;45413;-81
2021/08/19 11:12:48;;;;;;;;;5.00;4.00;;;;;;;;4985332;28;47246;-82
2021/08/19 11:15:13;;;;;;;;;4.00;3.75;;;;;;;;4985890;28;45189;-82
2021/08/19 11:17:48;;;;;;;;;4.25;4.00;;;;;;;;4985717;28;45730;-82
2021/08/19 11:20:28;;;;;;;;;4.25;4.25;;;;;;;;5006255;28;45253;-82
2021/08/19 11:23:01;;;;;;;;;3.00;2.25;;;;;;;;5005823;28;47072;-82
2021/08/19 11:25:26;;;;;;;;;4.75;3.00;;;;;;;;4988717;28;45520;-82
2021/08/19 11:27:52;;;;;;;;;3.75;3.75;;;;;;;;5006395;28;44881;-82
2021/08/19 11:30:31;;;;;;;;;5.00;5.00;;;;;;;;5004570;28;45365;-81
2021/08/19 11:33:13;;;;;;;;;6.00;4.50;;;;;;;;4990050;28;45462;-82
2021/08/19 11:35:39;;;;;;;;;6.00;4.50;;;;;;;;5002273;28;45289;-82
2021/08/19 11:38:12;;;;;;;;;8.00;4.00;;;;;;;;5001976;28;45328;-82
2021/08/19 11:40:38;;;;;;;;;3.25;3.25;;;;;;;;4983844;28;45596;-82
2021/08/19 11:43:23;;;;;;;;;5.75;4.75;;;;;;;;4983697;28;47140;-82
2021/08/19 11:45:49;;;;;;;;;7.75;6.00;;;;;;;;4983773;28;45858;-82
2021/08/19 11:48:17;;;;;;;;;4.25;4.25;;;;;;;;4983648;28;45320;-82
2021/08/19 11:50:42;;;;;;;;;4.75;4.75;;;;;;;;5001672;28;45408;-82
2021/08/19 11:53:07;;;;;;;;;6.33;5.00;;;;;;;;4983690;28;47444;-82
2021/08/19 11:55:34;;;;;;;;;7.00;5.00;;;;;;;;5001213;28;45362;-82
2021/08/19 11:58:15;;;;;;;;;7.00;6.25;;;;;;;;4983755;28;45271;-81
2021/08/19 12:00:56;;;;;;;;;4.75;4.50;;;;;;;;5001322;28;45323;-82
2021/08/19 12:03:21;;;;;;;;;4.25;4.25;;;;;;;;5000760;28;45310;-82
2021/08/19 12:05:56;;;;;;;;;6.00;4.67;;;;;;;;4990213;28;45337;-82
2021/08/19 12:08:25;;;;;;;;;6.00;4.00;;;;;;;;4981594;28;45317;-82
2021/08/19 12:10:51;;;;;;;;;6.00;4.75;;;;;;;;4981914;28;45563;-82
2021/08/19 12:13:16;;;;;;;;;6.50;5.25;;;;;;;;4963830;28;47354;-80
2021/08/19 12:15:41;;;;;;;;;4.00;4.00;;;;;;;;4968067;28;45235;-79
2021/08/19 12:18:09;;;;;;;;;4.67;4.67;;;;;;;;4995162;28;45330;-80
2021/08/19 12:20:34;;;;;;;;;5.25;4.75;;;;;;;;4994859;28;45199;-79
2021/08/19 12:23:16;;;;;;;;;4.50;4.00;;;;;;;;4969712;28;46007;-80
2021/08/19 12:25:41;;;;;;;;;3.00;3.00;;;;;;;;4963896;28;45600;-80
2021/08/19 12:28:07;;;;;;;;;3.00;3.00;;;;;;;;4981916;28;45192;-80
2021/08/19 12:30:33;;;;;;;;;5.75;3.00;;;;;;;;4969754;28;45499;-81
2021/08/19 12:32:59;;;;;;;;;3.00;2.75;;;;;;;;5000401;28;45507;-80
2021/08/19 12:35:24;;;;;;;;;4.75;3.25;;;;;;;;4982831;28;45725;-80
2021/08/19 12:37:57;;;;;;;;;3.67;3.67;;;;;;;;4983027;28;45244;-80
2021/08/19 12:40:30;;;;;;;;;3.00;2.00;;;;;;;;4982791;28;45393;-80
2021/08/19 12:43:05;;;;;;;;;4.25;2.25;;;;;;;;5000322;28;46407;-81
2021/08/19 12:45:31;;;;;;;;;5.75;2.50;;;;;;;;5000374;28;45306;-80
2021/08/19 12:48:04;;;;;;;;;4.75;4.00;;;;;;;;4982581;28;45232;-81
2021/08/19 12:50:29;;;;;;;;;4.75;4.00;;;;;;;;5000299;28;45306;-80
2021/08/19 12:53:11;;;;;;;;;2.25;2.25;;;;;;;;5000234;28;45556;-81
2021/08/19 12:55:37;;;;;;;;;5.00;4.00;;;;;;;;5000206;28;45514;-81
2021/08/19 12:58:02;;;;;;;;;3.00;3.00;;;;;;;;5000453;28;45467;-81
2021/08/19 13:00:29;;;;;;;;;3.00;2.00;;;;;;;;5000388;28;45356;-81
2021/08/19 13:02:56;;;;;;;;;2.25;2.25;;;;;;;;4999692;28;45400;-81
2021/08/19 13:05:23;;;;;;;;;3.00;3.00;;;;;;;;4982360;28;45282;-80
2021/08/19 13:07:50;;;;;;;;;3.25;2.00;;;;;;;;5003202;28;45384;-81
2021/08/19 13:10:16;;;;;;;;;3.50;2.75;;;;;;;;5003719;28;45397;-81
2021/08/19 13:12:41;;;;;;;;;4.50;4.50;;;;;;;;5003387;28;46703;-81
2021/08/19 13:15:07;;;;;;;;;3.75;3.50;;;;;;;;5003838;28;45368;-80
2021/08/19 13:17:33;;;;;;;;;5.25;3.00;;;;;;;;5003261;28;45435;-81
2021/08/19 13:19:58;;;;;;;;;3.00;3.00;;;;;;;;4985778;28;45473;-81
2021/08/19 13:22:23;;;;;;;;;4.25;3.00;;;;;;;;4985568;28;47331;-81
2021/08/19 13:24:49;;;;;;;;;3.75;3.00;;;;;;;;5003632;28;45457;-81
2021/08/19 13:27:15;;;;;;;;;4.00;3.00;;;;;;;;4985665;28;45416;-80
2021/08/19 13:29:41;;;;;;;;;2.50;2.50;;;;;;;;5003580;28;45296;-80
2021/08/19 13:32:07;;;;;;;;;5.00;3.00;;;;;;;;5002941;28;45380;-80
2021/08/19 13:34:32;;;;;;;;;4.75;1.50;;;;;;;;4985796;28;45265;-81
2021/08/19 13:36:58;;;;;;;;;5.50;2.75;;;;;;;;5003237;28;45265;-81
2021/08/19 13:39:23;;;;;;;;;4.00;4.00;;;;;;;;5003405;28;45223;-81
2021/08/19 13:41:48;;;;;;;;;4.00;2.50;;;;;;;;4985372;28;47075;-81
2021/08/19 13:44:13;;;;;;;;;4.00;2.00;;;;;;;;5003247;28;45432;-81
2021/08/19 13:46:38;;;;;;;;;2.33;2.33;;;;;;;;5003036;28;45227;-81
2021/08/19 13:49:04;;;;;;;;;4.00;4.00;;;;;;;;5002908;28;45306;-81
2021/08/19 13:51:29;;;;;;;;;3.67;2.67;;;;;;;;5002886;28;46509;-80
2021/08/19 13:53:54;;;;;;;;;3.50;3.00;;;;;;;;5003253;28;45234;-80
2021/08/19 13:56:19;;;;;;;;;5.33;3.00;;;;;;;;4985371;28;45341;-80
2021/08/19 13:58:45;;;;;;;;;4.75;2.00;;;;;;;;5002902;28;45145;-81
2021/08/19 14:01:10;;;;;;;;;6.00;3.33;;;;;;;;4989095;28;45529;-81
2021/08/19 14:03:35;;;;;;;;;2.67;2.67;;;;;;;;4982946;28;45517;-80
2021/08/19 14:06:00;;;;;;;;;3.00;3.00;;;;;;;;4983232;28;45587;-80
2021/08/19 14:08:25;;;;;;;;;3.00;2.33;;;;;;;;4983078;28;45275;-80
2021/08/19 14:10:51;;;;;;;;;4.00;4.00;;;;;;;;4965358;28;47277;-80
2021/08/19 14:13:16;;;;;;;;;3.67;3.33;;;;;;;;4974613;28;45361;-81
2021/08/19 14:15:41;;;;;;;;;5.33;2.00;;;;;;;;5003349;28;45499;-80
2021/08/19 14:18:07;;;;;;;;;3.50;3.50;;;;;;;;5002551;28;45571;-80
2021/08/19 14:20:32;;;;;;;;;5.25;5.00;;;;;;;;5003003;28;45364;-80
2021/08/19 14:22:57;;;;;;;;;7.25;4.25;;;;;;;;4985479;28;45815;-80
2021/08/19 14:25:22;;;;;;;;;5.00;4.00;;;;;;;;4986748;28;45317;-80
2021/08/19 14:27:48;;;;;;;;;5.00;3.25;;;;;;;;4997477;28;45420;-80
2021/08/19 14:30:13;;;;;;;;;4.33;2.67;;;;;;;;4996547;28;45541;-80
2021/08/19 14:32:38;;;;;;;;;3.00;3.00;;;;;;;;5003366;28;45455;-80
2021/08/19 14:35:04;;;;;;;;;4.33;4.00;;;;;;;;5007096;28;45428;-80
2021/08/19 14:37:30;;;;;;;;;5.00;2.50;;;;;;;;4995237;28;45373;-82
2021/08/19 14:39:55;;;;;;;;;6.00;4.00;;;;;;;;5008721;28;45326;-81